San Luis County Regional Airport
KSBP : now visible

Airfield :











YOU CAN JOIN US ON...

 
LOGIN :

Register | Disclaimer

   EN    FR    IT 

 









Legend :    VFR   Marginal VFR   IFR   Intensive IFR   Very Intensive IFR
Visi :
Ceiling :
>= 8 km
>= 3000ft
5 to 8 km
1000 to 3000 ft
1500m to 5 km
500 to 1000 ft
800 to 1500m
200 to 500 ft
< 800m
< 200 ft
Symbols :   Thunderstorms  Fog  Heavy snow  Heavy precipitations  Wind > 20 kt







- Airport Elevation : 212 ft
- IATA code : SBP


KSBP - San Luis County Regional

CURRENT METAR :
  • 220156Z 32009KT 10SM CLR 23/06 A2986 RMK AO2 SLP110 T02280061

EXPIRED METARs :
  • 220056Z 32011KT 10SM CLR 24/06 A2985 RMK AO2 SLP106 T02440061
  • 212356Z 33014KT 10SM CLR 27/06 A2984 RMK AO2 SLP103 T02670056 10328 20261 53003
  • 212256Z 32010KT 10SM CLR 28/06 A2984 RMK AO2 SLP101 T02780061

TAF KSBP
Valid from the 22 at 00:00 until the 23 at 00:00 UTC


212320Z 2200/2224 32012KT P6SM SKC
FM220200 33006KT P6SM SKC
FM220600 VRB03KT P6SM SKC
FM221600 31006KT P6SM SCT250
FM222100 32012KT P6SM SCT250
No reported NOTAMs for that airfield.



MET'MAP, your aeronautical weather chart ! - Copyright ORBIFLY December 2007 - Disclaimer

ORBIFLY MET'MAP TEAM :

Programming & Development : Alexandra Zaïnal
Concept & Development : Baudouin d'Aumeries
Co-Development & Prog : Marc-Olivier Méhu
Technical & hardware support : Manuel Goepfert

Contact : metmap@orbifly.com




SOURCES & CREDITS :

   NOAA       Earth
Advisory